Nearby METAR Reports

 

KIWA - Chandler/Mesa, Arizona, USA
Distance from station: SSW 10mi, 16km
Updated: Tue, 07-Jul-2020 11:50am MST
Clear
Clear
 Wind from N
Wind: N 6 mph , 9 km/h
Temperature: 102°F , 39°C
Dew Point: 41°F , 5°C
Humidity: 12%
Barometer: 29.88 inHg , 1011.9 hPa
Clouds: Clear
Visibility: 10 miles , 16 km
2020/07/07 18:50 KIWA 071850Z 35005KT 10SM SKC 39/05 A2988
KFFZ - Mesa/Falcon Fld, Arizona, USA
Distance from station: WNW 8mi, 13km
Updated: Tue, 07-Jul-2020 11:54am MST
Clear
Clear
 Wind from W
Wind: W 6 mph , 9 km/h
Temperature: 102°F , 39°C
Dew Point: 45°F , 7°C
Humidity: 14%
Barometer: 29.86 inHg , 1011.2 hPa
Clouds: Clear
Visibility: 10 miles , 16 km
2020/07/07 18:54 KFFZ 071854Z 26005KT 10SM CLR 39/07 A2986 RMK AO2 SLP083 T03890067
KPHX - Phoenix/Sky Hrbr, Arizona, USA
Distance from station: W 25mi, 41km
Updated: Tue, 07-Jul-2020 11:51am MST
Clear
Clear
 Wind from WNW
Wind: WNW 5 mph , 7 km/h
Temperature: 102°F , 39°C
Dew Point: 46°F , 8°C
Humidity: 15%
Barometer: 29.83 inHg , 1010.2 hPa
Clouds: Clear
Visibility: 10 miles , 16 km
2020/07/07 18:51 KPHX 071851Z 30004KT 10SM CLR 39/08 A2983 RMK AO2 SLP079 T03890083

Metar display script from Saratoga-Weather.org